Time;durP1;ratioP1;P1;durP2;ratioP2;P2;SDS_P1;SDS_P2;PMS_P1;PMS_P2;Temp;Humidity;BMP_temperature;BMP_pressure;BME280_temperature;BME280_humidity;BME280_pressure;Samples;Min_cycle;Max_cycle;Signal;HPM_P1;HPM_P2
2023/10/22 00:02:05;;;;;;;104.10;72.55;;;;;;;22.30;nan;99127.94;5037559;28;20141;-65
2023/10/22 00:04:34;;;;;;;98.35;68.22;;;;;;;22.17;nan;99122.94;5037006;28;20092;-65
2023/10/22 00:07:04;;;;;;;96.93;69.70;;;;;;;22.08;nan;99126.41;5035727;28;20037;-65
2023/10/22 00:09:36;;;;;;;102.63;71.23;;;;;;;22.30;nan;99127.13;5036614;28;20053;-66
2023/10/22 00:12:06;;;;;;;98.10;67.80;;;;;;;22.43;nan;99129.38;5026485;28;20049;-65
2023/10/22 00:14:35;;;;;;;106.65;72.18;;;;;;;22.38;nan;99122.06;5027108;28;20064;-66
2023/10/22 00:17:05;;;;;;;100.55;70.63;;;;;;;22.40;nan;99109.09;5028411;28;20049;-66
2023/10/22 00:20:00;;;;;;;99.57;69.28;;;;;;;22.29;nan;99107.41;5028233;28;20053;-65
2023/10/22 00:22:29;;;;;;;104.25;68.78;;;;;;;22.24;nan;99101.97;5027409;28;20144;-65
2023/10/22 00:24:59;;;;;;;101.78;70.20;;;;;;;22.08;nan;99099.44;5026893;28;20045;-66
2023/10/22 00:27:28;;;;;;;107.10;68.03;;;;;;;21.86;nan;99081.38;5027234;28;20050;-66
2023/10/22 00:29:58;;;;;;;94.93;67.13;;;;;;;21.67;nan;99071.25;5028542;28;20051;-67
2023/10/22 00:32:28;;;;;;;100.47;71.05;;;;;;;21.84;nan;99077.31;5006108;28;20049;-66
2023/10/22 00:34:58;;;;;;;101.70;70.90;;;;;;;21.86;nan;99072.50;5015436;28;20657;-65
2023/10/22 00:37:28;;;;;;;101.55;71.72;;;;;;;21.70;nan;99093.09;5012432;28;20136;-66
2023/10/22 00:39:57;;;;;;;104.72;68.88;;;;;;;21.62;nan;99108.94;5029692;28;20129;-66
2023/10/22 00:42:26;;;;;;;98.43;70.22;;;;;;;21.63;nan;99108.69;5013914;28;20476;-65
2023/10/22 00:44:56;;;;;;;100.95;69.10;;;;;;;21.68;nan;99108.75;5044167;28;20103;-65
2023/10/22 00:47:25;;;;;;;100.38;70.13;;;;;;;21.74;nan;99106.88;5027972;28;20608;-65
2023/10/22 00:49:55;;;;;;;100.65;69.88;;;;;;;21.45;nan;99106.31;5043453;28;20060;-65
2023/10/22 00:52:26;;;;;;;113.25;71.28;;;;;;;21.25;nan;99104.19;5036593;28;20780;-66
2023/10/22 00:54:58;;;;;;;104.93;71.65;;;;;;;21.28;nan;99108.28;5026541;28;20219;-65
2023/10/22 00:57:27;;;;;;;106.78;69.90;;;;;;;21.55;nan;99108.31;5042140;28;20503;-65
2023/10/22 00:59:56;;;;;;;95.45;71.97;;;;;;;21.61;nan;99110.00;5043252;28;20064;-65
2023/10/22 01:02:26;;;;;;;104.85;73.25;;;;;;;21.48;nan;99105.81;5017108;28;20084;-65
2023/10/22 01:04:56;;;;;;;98.13;71.57;;;;;;;21.62;nan;99114.31;5008671;28;20045;-65
2023/10/22 01:07:25;;;;;;;99.28;73.00;;;;;;;21.69;nan;99115.72;5026172;28;20053;-65
2023/10/22 01:09:54;;;;;;;104.45;73.35;;;;;;;21.64;nan;99117.59;5006892;28;20037;-65
2023/10/22 01:12:32;;;;;;;99.70;73.47;;;;;;;21.85;nan;99122.09;5027841;28;20064;-65
2023/10/22 01:15:02;;;;;;;95.55;70.68;;;;;;;21.82;nan;99130.69;5025936;28;20140;-65
2023/10/22 01:17:31;;;;;;;99.15;72.05;;;;;;;21.51;nan;99122.28;5009221;28;20485;-65
2023/10/22 01:20:00;;;;;;;100.15;70.30;;;;;;;21.42;nan;99129.19;5043104;28;20045;-65
2023/10/22 01:22:29;;;;;;;99.85;74.00;;;;;;;21.58;nan;99132.88;5043890;28;20045;-66
2023/10/22 01:24:59;;;;;;;103.57;73.07;;;;;;;21.40;nan;99138.59;5026587;28;20140;-65
2023/10/22 01:27:33;;;;;;;102.72;75.35;;;;;;;21.12;nan;99134.19;5045040;28;20385;-65
2023/10/22 01:30:03;;;;;;;107.22;75.60;;;;;;;21.13;nan;99124.25;5027128;28;20060;-65
2023/10/22 01:32:33;;;;;;;107.78;76.32;;;;;;;21.45;nan;99141.38;5010984;28;20135;-66
2023/10/22 01:35:06;;;;;;;94.90;72.90;;;;;;;21.61;nan;99150.41;5025868;28;20144;-66
2023/10/22 01:37:36;;;;;;;108.15;76.65;;;;;;;21.47;nan;99153.50;5036696;28;20515;-65
2023/10/22 01:40:07;;;;;;;102.38;76.07;;;;;;;21.24;nan;99144.88;5028060;28;20708;-65
2023/10/22 01:42:36;;;;;;;109.32;75.78;;;;;;;21.16;nan;99151.50;5027319;28;20057;-65
2023/10/22 01:45:08;;;;;;;95.07;74.05;;;;;;;21.26;nan;99143.56;5024216;28;20091;-66
2023/10/22 01:47:38;;;;;;;98.35;74.47;;;;;;;21.25;nan;99160.78;5040729;28;20658;-65
2023/10/22 01:50:07;;;;;;;107.18;79.20;;;;;;;21.20;nan;99174.19;5025903;28;20041;-65
2023/10/22 01:52:37;;;;;;;105.05;77.65;;;;;;;21.07;nan;99171.81;5010289;28;20060;-66
2023/10/22 01:55:06;;;;;;;102.35;75.88;;;;;;;21.09;nan;99172.41;5038672;28;20060;-65
2023/10/22 01:57:38;;;;;;;105.88;74.90;;;;;;;21.58;nan;99159.84;5045361;28;20060;-65
2023/10/22 02:00:12;;;;;;;102.72;78.70;;;;;;;21.79;nan;99163.56;5024201;28;20170;-65
2023/10/22 02:02:41;;;;;;;115.28;78.93;;;;;;;21.99;nan;99165.69;5027636;28;20049;-65
2023/10/22 02:05:11;;;;;;;95.40;76.40;;;;;;;21.90;nan;99173.41;5020822;28;20044;-65
2023/10/22 02:07:40;;;;;;;96.28;74.13;;;;;;;21.87;nan;99174.72;5027231;28;20144;-65
2023/10/22 02:10:10;;;;;;;95.90;75.50;;;;;;;21.70;nan;99176.69;5042605;28;20095;-65
2023/10/22 02:12:40;;;;;;;104.18;79.30;;;;;;;21.85;nan;99190.34;5043169;28;20076;-65
2023/10/22 02:15:12;;;;;;;104.00;78.97;;;;;;;21.92;nan;99184.72;5043494;28;20056;-65
2023/10/22 02:17:42;;;;;;;108.75;80.13;;;;;;;21.76;nan;99193.75;5027284;28;20539;-67
2023/10/22 02:20:11;;;;;;;102.65;78.03;;;;;;;21.79;nan;99194.03;5027126;28;20045;-65
2023/10/22 02:22:41;;;;;;;103.75;78.47;;;;;;;22.05;nan;99199.72;5034116;28;20151;-65
2023/10/22 02:25:11;;;;;;;100.50;77.05;;;;;;;22.07;nan;99209.22;5024675;28;20057;-66
2023/10/22 02:27:40;;;;;;;97.72;75.95;;;;;;;22.31;nan;99207.00;5025418;28;20045;-65
2023/10/22 02:30:09;;;;;;;97.65;74.05;;;;;;;22.24;nan;99226.09;5040195;28;20083;-65
2023/10/22 02:32:39;;;;;;;106.18;78.82;;;;;;;21.96;nan;99226.34;5034944;28;20492;-65
2023/10/22 02:35:10;;;;;;;102.63;77.25;;;;;;;22.00;nan;99232.84;5024363;28;20079;-65
2023/10/22 02:37:40;;;;;;;95.53;78.28;;;;;;;22.14;nan;99238.69;5025791;28;20731;-65
2023/10/22 02:40:10;;;;;;;99.00;77.50;;;;;;;21.99;nan;99249.31;5040250;28;20056;-66
2023/10/22 02:42:39;;;;;;;102.00;76.53;;;;;;;21.98;nan;99253.06;5036743;28;20128;-66
2023/10/22 02:45:10;;;;;;;100.43;77.75;;;;;;;22.08;nan;99259.41;5009647;28;20060;-65
2023/10/22 02:47:39;;;;;;;100.40;79.18;;;;;;;22.10;nan;99257.25;5025287;28;20480;-65
2023/10/22 02:50:09;;;;;;;94.65;76.50;;;;;;;22.23;nan;99259.56;5025289;28;20111;-65
2023/10/22 02:52:39;;;;;;;96.57;79.22;;;;;;;22.08;nan;99262.09;5029377;28;20076;-65
2023/10/22 02:55:08;;;;;;;101.75;77.97;;;;;;;21.87;nan;99255.63;5031238;28;20057;-65
2023/10/22 02:57:37;;;;;;;99.72;79.18;;;;;;;22.13;nan;99258.66;5043608;28;20049;-65
2023/10/22 03:00:10;;;;;;;95.65;76.55;;;;;;;22.32;nan;99257.22;5042118;28;20048;-65
2023/10/22 03:02:48;;;;;;;104.95;80.60;;;;;;;22.13;nan;99258.66;5024878;28;20059;-65
2023/10/22 03:05:17;;;;;;;104.68;79.90;;;;;;;21.86;nan;99258.59;5021066;28;20110;-65
2023/10/22 03:07:47;;;;;;;104.18;78.00;;;;;;;22.14;nan;99263.78;5027196;28;20045;-65
2023/10/22 03:10:16;;;;;;;104.53;79.35;;;;;;;22.36;nan;99258.31;5025304;28;20045;-66
2023/10/22 03:12:45;;;;;;;104.93;79.60;;;;;;;22.41;nan;99263.78;5030301;28;20072;-66
2023/10/22 03:15:15;;;;;;;105.22;79.03;;;;;;;22.60;nan;99270.44;5010570;28;20057;-65
2023/10/22 03:17:44;;;;;;;100.03;81.53;;;;;;;22.77;nan;99264.94;5026305;28;20197;-66
2023/10/22 03:20:16;;;;;;;99.07;82.72;;;;;;;22.67;nan;99273.75;5028863;28;20331;-66
2023/10/22 03:22:45;;;;;;;108.88;81.82;;;;;;;22.86;nan;99271.50;5032996;28;20044;-65
2023/10/22 03:25:15;;;;;;;101.25;80.85;;;;;;;22.90;nan;99277.19;5027780;28;20056;-66
2023/10/22 03:27:44;;;;;;;109.65;83.53;;;;;;;23.01;nan;99276.22;5028520;28;20061;-66
2023/10/22 03:30:13;;;;;;;112.28;86.47;;;;;;;22.89;nan;99283.66;5044065;28;20057;-67
2023/10/22 03:32:42;;;;;;;103.95;83.97;;;;;;;22.95;nan;99277.25;5036334;28;20045;-66
2023/10/22 03:35:17;;;;;;;107.18;85.50;;;;;;;23.00;nan;99288.91;5048036;28;20052;-66
2023/10/22 03:37:46;;;;;;;119.40;91.28;;;;;;;22.82;nan;99279.31;5048539;28;20137;-66
2023/10/22 03:40:15;;;;;;;111.72;86.88;;;;;;;22.61;nan;99282.88;5031218;28;20063;-66
2023/10/22 03:42:45;;;;;;;108.13;85.65;;;;;;;22.87;nan;99292.03;5030420;28;20080;-66
2023/10/22 03:45:14;;;;;;;101.90;83.40;;;;;;;22.89;nan;99284.47;5028406;28;20111;-66
2023/10/22 03:47:45;;;;;;;106.90;86.25;;;;;;;23.16;nan;99284.41;5037817;28;20057;-66
2023/10/22 03:50:15;;;;;;;113.28;87.03;;;;;;;23.08;nan;99279.50;5043996;28;20439;-66
2023/10/22 03:52:44;;;;;;;108.78;86.93;;;;;;;22.99;nan;99287.28;5045767;28;20164;-66
2023/10/22 03:55:13;;;;;;;116.25;86.30;;;;;;;23.04;nan;99292.72;5047458;28;20037;-66
2023/10/22 03:57:43;;;;;;;111.43;87.97;;;;;;;23.20;nan;99290.94;5047745;28;20052;-66
2023/10/22 04:00:13;;;;;;;109.40;85.25;;;;;;;23.22;nan;99300.41;5031288;28;20165;-66
2023/10/22 04:02:42;;;;;;;105.57;84.47;;;;;;;23.20;nan;99297.16;5029732;28;20068;-66
2023/10/22 04:05:11;;;;;;;108.93;85.68;;;;;;;23.33;nan;99300.47;5037979;28;20061;-66
2023/10/22 04:07:41;;;;;;;113.82;86.88;;;;;;;23.43;nan;99295.13;5025128;28;20049;-65
2023/10/22 04:10:12;;;;;;;111.60;89.32;;;;;;;23.53;nan;99300.63;5042187;28;20144;-65
2023/10/22 04:12:42;;;;;;;106.20;89.05;;;;;;;23.51;nan;99297.38;5045129;28;20055;-65
2023/10/22 04:15:12;;;;;;;109.82;87.78;;;;;;;23.56;nan;99300.91;5047028;28;20045;-65
2023/10/22 04:17:41;;;;;;;112.22;90.35;;;;;;;23.43;nan;99305.94;5045864;28;20548;-66
2023/10/22 04:20:11;;;;;;;111.97;88.75;;;;;;;23.25;nan;99301.78;5031963;28;20063;-66
2023/10/22 04:22:45;;;;;;;110.22;87.22;;;;;;;23.48;nan;99303.31;5044934;28;20068;-66
2023/10/22 04:25:16;;;;;;;;;;;;;;;23.59;nan;99311.22;5047270;28;20044;-66
2023/10/22 04:27:48;;;;;;;111.47;87.72;;;;;;;23.70;nan;99309.38;5031862;28;19924;-65
2023/10/22 04:30:17;;;;;;;111.47;90.38;;;;;;;23.66;nan;99305.56;5027097;28;20073;-65
2023/10/22 04:32:46;;;;;;;107.63;88.82;;;;;;;23.83;nan;99300.78;5017709;28;20049;-65
2023/10/22 04:35:16;;;;;;;111.53;90.28;;;;;;;23.92;nan;99295.69;5040685;28;20161;-65
2023/10/22 04:37:45;;;;;;;109.05;86.47;;;;;;;23.83;nan;99302.69;5028024;28;20049;-65
2023/10/22 04:40:15;;;;;;;109.45;88.18;;;;;;;23.83;nan;99305.38;5028493;28;20061;-65
2023/10/22 04:42:44;;;;;;;109.43;87.38;;;;;;;23.96;nan;99305.72;5035904;28;20075;-66
2023/10/22 04:45:14;;;;;;;100.47;83.07;;;;;;;24.10;nan;99306.84;5025297;28;20049;-65
2023/10/22 04:47:43;;;;;;;115.78;89.10;;;;;;;23.99;nan;99305.16;5012542;28;20053;-65
2023/10/22 04:50:12;;;;;;;116.38;92.47;;;;;;;23.79;nan;99309.69;5026840;28;20443;-66
2023/10/22 04:52:42;;;;;;;110.38;91.05;;;;;;;23.82;nan;99301.84;5026565;28;20132;-66
2023/10/22 04:55:12;;;;;;;114.68;92.22;;;;;;;24.00;nan;99309.50;5019535;28;20535;-66
2023/10/22 04:57:42;;;;;;;109.63;91.50;;;;;;;24.09;nan;99315.22;5029897;28;20048;-67
2023/10/22 05:00:14;;;;;;;106.57;91.07;;;;;;;24.15;nan;99309.63;5030002;28;20045;-67
2023/10/22 05:02:44;;;;;;;108.35;88.80;;;;;;;24.18;nan;99300.13;5023652;28;20065;-66
2023/10/22 05:05:16;;;;;;;119.47;90.35;;;;;;;24.22;nan;99309.34;5006077;28;20088;-66
2023/10/22 05:07:52;;;;;;;115.45;93.78;;;;;;;24.24;nan;99311.81;5007447;28;20042;-67
2023/10/22 05:10:21;;;;;;;126.82;97.80;;;;;;;24.33;nan;99307.50;5012795;28;20525;-67
2023/10/22 05:12:50;;;;;;;118.05;94.03;;;;;;;24.26;nan;99302.31;5024940;28;20042;-68
2023/10/22 05:15:20;;;;;;;109.03;86.00;;;;;;;24.29;nan;99306.41;5023760;28;20049;-67
2023/10/22 05:17:50;;;;;;;103.63;82.95;;;;;;;24.23;nan;99296.63;5024485;28;20116;-67
2023/10/22 05:20:19;;;;;;;103.07;80.88;;;;;;;24.29;nan;99292.88;5024233;28;20052;-67
2023/10/22 05:22:49;;;;;;;109.95;81.22;;;;;;;24.30;nan;99298.00;5023554;28;20128;-68
2023/10/22 05:25:20;;;;;;;102.22;81.00;;;;;;;24.34;nan;99292.88;5027374;28;20087;-68
2023/10/22 05:27:49;;;;;;;100.05;74.57;;;;;;;24.33;nan;99285.84;5020564;28;20042;-68
2023/10/22 05:30:19;;;;;;;89.72;72.50;;;;;;;24.38;nan;99288.56;5024671;28;20402;-67
2023/10/22 05:32:48;;;;;;;95.15;73.15;;;;;;;24.36;nan;99288.00;5023176;28;20131;-68
2023/10/22 05:35:21;;;;;;;87.60;68.88;;;;;;;24.37;nan;99286.91;5022660;28;20041;-68
2023/10/22 05:37:51;;;;;;;85.38;70.57;;;;;;;24.36;nan;99288.81;5023643;28;20069;-67
2023/10/22 05:40:21;;;;;;;85.00;67.35;;;;;;;24.37;nan;99287.75;5023719;28;20099;-68
2023/10/22 05:42:50;;;;;;;87.18;68.32;;;;;;;24.26;nan;99283.38;5024512;28;20052;-68
2023/10/22 05:45:20;;;;;;;81.90;65.43;;;;;;;24.49;nan;99280.16;5026169;28;20044;-67
2023/10/22 05:47:49;;;;;;;92.85;74.00;;;;;;;24.48;nan;99280.44;5023495;28;20118;-68
2023/10/22 05:50:18;;;;;;;97.65;78.32;;;;;;;24.58;nan;99277.75;5027779;28;20045;-68
2023/10/22 05:52:50;;;;;;;99.10;76.68;;;;;;;24.70;nan;99275.56;5028742;28;20097;-67
2023/10/22 05:55:19;;;;;;;106.22;82.65;;;;;;;24.30;nan;99268.22;5026334;28;20057;-68
2023/10/22 05:57:49;;;;;;;110.65;82.93;;;;;;;24.59;nan;99261.22;5025156;28;20072;-66
2023/10/22 06:00:18;;;;;;;103.60;82.65;;;;;;;24.72;nan;99278.84;5024446;28;20045;-67
2023/10/22 06:02:47;;;;;;;108.13;80.22;;;;;;;24.83;nan;99275.03;5024432;28;20046;-67
2023/10/22 06:05:17;;;;;;;112.35;79.82;;;;;;;24.72;nan;99268.00;5006856;28;20081;-67
2023/10/22 06:07:52;;;;;;;108.70;83.17;;;;;;;24.97;nan;99268.03;5022290;28;20095;-67
2023/10/22 06:10:22;;;;;;;123.80;88.70;;;;;;;24.90;nan;99262.06;5023229;28;20108;-67
2023/10/22 06:12:52;;;;;;;117.18;86.05;;;;;;;24.89;nan;99259.63;5027288;28;20061;-67
2023/10/22 06:15:21;;;;;;;111.88;82.75;;;;;;;24.93;nan;99264.22;5025453;28;20136;-67
2023/10/22 06:17:53;;;;;;;111.93;85.65;;;;;;;24.96;nan;99271.81;5023946;28;20044;-67
2023/10/22 06:20:24;;;;;;;96.38;75.07;;;;;;;24.68;nan;99268.81;5024855;28;20060;-66
2023/10/22 06:22:56;;;;;;;101.75;76.00;;;;;;;24.67;nan;99254.44;5015847;28;20465;-66
2023/10/22 06:25:26;;;;;;;114.60;79.30;;;;;;;24.86;nan;99261.00;5026466;28;20046;-66
2023/10/22 06:27:55;;;;;;;106.15;79.43;;;;;;;25.01;nan;99257.44;5023955;28;20064;-67
2023/10/22 06:30:25;;;;;;;122.57;82.13;;;;;;;24.83;nan;99261.47;5025921;28;20516;-66
2023/10/22 06:32:56;;;;;;;104.53;78.80;;;;;;;24.59;nan;99258.53;5029333;28;20544;-67
2023/10/22 06:35:30;;;;;;;110.32;78.90;;;;;;;24.71;nan;99252.00;5031237;28;20045;-66
2023/10/22 06:37:59;;;;;;;105.82;76.47;;;;;;;25.11;nan;99248.47;5026897;28;20063;-68
2023/10/22 06:40:29;;;;;;;103.80;73.15;;;;;;;25.17;nan;99244.69;5032435;28;20132;-72
2023/10/22 06:42:59;;;;;;;88.60;68.93;;;;;;;25.19;nan;99237.91;4660024;28;10000221;-71
2023/10/22 06:45:28;;;;;;;95.93;70.30;;;;;;;25.25;nan;99238.69;5027714;28;20126;-68
2023/10/22 06:47:57;;;;;;;95.38;70.28;;;;;;;25.32;nan;99237.31;5021792;28;20045;-68
2023/10/22 06:50:27;;;;;;;90.65;71.18;;;;;;;25.41;nan;99235.66;5024993;28;20735;-69
2023/10/22 06:52:56;;;;;;;77.07;57.67;;;;;;;25.51;nan;99229.41;5031818;28;20038;-70
2023/10/22 06:55:26;;;;;;;78.10;57.20;;;;;;;25.70;nan;99222.31;5019739;28;20283;-69
2023/10/22 06:57:55;;;;;;;73.30;57.53;;;;;;;25.84;nan;99225.25;5016990;28;20930;-67
2023/10/22 07:00:25;;;;;;;72.38;56.78;;;;;;;26.09;nan;99219.66;5023776;28;20118;-68
2023/10/22 07:02:54;;;;;;;75.43;55.88;;;;;;;26.23;nan;99215.25;5023887;28;20038;-68
2023/10/22 07:05:24;;;;;;;91.13;66.90;;;;;;;26.33;nan;99217.88;5020101;28;20150;-66
2023/10/22 07:07:54;;;;;;;79.30;59.85;;;;;;;26.61;nan;99210.06;5021828;28;20678;-68
2023/10/22 07:10:23;;;;;;;81.63;60.85;;;;;;;26.67;nan;99204.31;5031183;28;20053;-66
2023/10/22 07:12:53;;;;;;;88.68;59.42;;;;;;;26.57;nan;99206.31;5024258;28;20515;-67
2023/10/22 07:15:25;;;;;;;73.03;56.40;;;;;;;26.64;nan;99207.59;5022704;28;20053;-68
2023/10/22 07:17:54;;;;;;;68.00;46.20;;;;;;;26.61;nan;99194.56;5019561;28;20053;-67
2023/10/22 07:20:25;;;;;;;64.70;48.92;;;;;;;26.71;nan;99190.97;5012645;28;20072;-68
2023/10/22 07:22:54;;;;;;;64.80;48.85;;;;;;;26.76;nan;99180.88;5017354;28;20363;-67
2023/10/22 07:25:24;;;;;;;69.50;50.95;;;;;;;26.75;nan;99176.53;5024283;28;20055;-68
2023/10/22 07:27:54;;;;;;;64.38;50.13;;;;;;;26.74;nan;99176.78;5021952;28;20796;-69
2023/10/22 07:30:33;;;;;;;67.95;51.25;;;;;;;26.62;nan;99173.66;5013225;28;20123;-69
2023/10/22 07:33:03;;;;;;;71.25;50.33;;;;;;;26.77;nan;99165.38;5022624;28;20468;-68
2023/10/22 07:35:32;;;;;;;66.38;45.90;;;;;;;26.92;nan;99162.50;5022909;28;20038;-69
2023/10/22 07:38:02;;;;;;;69.50;54.35;;;;;;;26.74;nan;99160.47;5023314;28;20060;-69
2023/10/22 07:40:35;;;;;;;60.92;49.03;;;;;;;26.77;nan;99158.03;5018117;28;20791;-68
2023/10/22 07:43:05;;;;;;;68.75;49.08;;;;;;;26.77;nan;99152.59;5019445;28;20053;-68
2023/10/22 07:45:38;;;;;;;63.88;49.22;;;;;;;26.64;nan;99157.88;5016802;28;20141;-69
2023/10/22 07:48:08;;;;;;;57.65;46.95;;;;;;;26.49;nan;99149.88;5021384;28;20049;-71
2023/10/22 07:50:37;;;;;;;60.40;48.50;;;;;;;26.45;nan;99155.06;5025689;28;20140;-69
2023/10/22 07:53:07;;;;;;;60.42;46.60;;;;;;;26.48;nan;99149.03;5023595;28;20046;-69
2023/10/22 07:55:37;;;;;;;56.53;45.00;;;;;;;26.42;nan;99141.25;5024965;28;20051;-70
2023/10/22 07:58:06;;;;;;;54.92;39.95;;;;;;;26.34;nan;99129.06;5018841;28;20056;-70
2023/10/22 08:00:38;;;;;;;55.28;43.17;;;;;;;26.36;nan;99132.31;5032727;28;20060;-68
2023/10/22 08:03:08;;;;;;;55.92;41.40;;;;;;;26.34;nan;99129.06;5020972;28;20056;-69
2023/10/22 08:05:38;;;;;;;53.85;43.28;;;;;;;26.27;nan;99132.13;5040277;28;20488;-69
2023/10/22 08:08:07;;;;;;;56.35;42.08;;;;;;;26.30;nan;99123.41;5020753;28;20253;-71
2023/10/22 08:10:37;;;;;;;54.67;44.60;;;;;;;26.32;nan;99123.94;5016394;28;20056;-70
2023/10/22 08:13:06;;;;;;;53.45;42.67;;;;;;;26.34;nan;99123.63;5024689;28;20088;-70
2023/10/22 08:15:36;;;;;;;56.70;44.60;;;;;;;26.38;nan;99123.91;5040819;28;20068;-70
2023/10/22 08:18:09;;;;;;;57.78;44.70;;;;;;;26.35;nan;99111.69;5024980;28;20055;-69
2023/10/22 08:20:38;;;;;;;58.17;48.10;;;;;;;26.33;nan;99111.94;5031957;28;20500;-69
2023/10/22 08:23:08;;;;;;;65.45;49.50;;;;;;;26.25;nan;99114.47;5021217;28;20111;-69
2023/10/22 08:25:37;;;;;;;71.07;53.83;;;;;;;26.20;nan;99115.31;5027723;28;20132;-69
2023/10/22 08:28:06;;;;;;;62.78;46.13;;;;;;;26.28;nan;99113.94;5028480;28;20049;-70
2023/10/22 08:30:36;;;;;;;64.10;47.13;;;;;;;26.36;nan;99105.97;5020857;28;20041;-68
2023/10/22 08:33:05;;;;;;;55.53;42.85;;;;;;;26.40;nan;99098.06;5023410;28;20702;-66
2023/10/22 08:35:35;;;;;;;53.90;39.50;;;;;;;26.48;nan;99102.88;5021646;28;20965;-68
2023/10/22 08:38:04;;;;;;;45.90;38.22;;;;;;;26.52;nan;99098.47;5033187;28;20049;-65
2023/10/22 08:40:43;;;;;;;44.88;32.80;;;;;;;26.53;nan;99091.13;5031177;28;20817;-67
2023/10/22 08:43:17;;;;;;;47.30;31.02;;;;;;;26.64;nan;99089.94;5030764;28;20256;-69
2023/10/22 08:45:49;;;;;;;34.85;26.48;;;;;;;26.69;nan;99098.84;4329702;28;10000836;-66
2023/10/22 08:48:20;;;;;;;34.00;24.33;;;;;;;26.77;nan;99089.28;5023493;28;20594;-68
2023/10/22 08:50:56;;;;;;;32.17;22.90;;;;;;;26.99;nan;99080.63;5023723;28;20052;-68
2023/10/22 08:53:28;;;;;;;27.92;21.40;;;;;;;27.12;nan;99086.16;5030469;28;20072;-68
2023/10/22 08:55:58;;;;;;;27.42;20.52;;;;;;;27.05;nan;99082.97;5032237;28;20084;-68
2023/10/22 08:58:28;;;;;;;30.80;20.13;;;;;;;27.10;nan;99080.19;5031971;28;20138;-68
2023/10/22 09:01:03;;;;;;;26.10;20.42;;;;;;;27.20;nan;99076.53;5026678;28;20190;-68
2023/10/22 09:03:33;;;;;;;23.77;18.60;;;;;;;27.14;nan;99075.78;5026664;28;20037;-68
2023/10/22 09:06:05;;;;;;;23.77;18.25;;;;;;;27.20;nan;99079.25;5028027;28;20731;-69
2023/10/22 09:08:45;;;;;;;28.00;18.85;;;;;;;27.21;nan;99078.16;5027684;28;20337;-69
2023/10/22 09:11:20;;;;;;;22.13;18.13;;;;;;;27.23;nan;99076.75;5020823;28;20385;-68
2023/10/22 09:13:49;;;;;;;28.08;18.75;;;;;;;26.95;nan;99074.16;5020574;28;20041;-69
2023/10/22 09:16:29;;;;;;;27.27;18.95;;;;;;;26.76;nan;99072.16;5024733;28;20053;-68
2023/10/22 09:19:01;;;;;;;27.33;18.70;;;;;;;26.70;nan;99073.28;5024231;28;20064;-69
2023/10/22 09:21:44;;;;;;;25.90;18.38;;;;;;;26.74;nan;99078.94;5028576;28;20089;-68
2023/10/22 09:24:16;;;;;;;27.38;18.70;;;;;;;26.77;nan;99071.06;5016384;28;20053;-69
2023/10/22 09:26:48;;;;;;;24.17;17.80;;;;;;;26.76;nan;99074.06;5025496;28;20061;-69
2023/10/22 09:29:17;;;;;;;27.55;19.33;;;;;;;26.70;nan;99067.84;5033871;28;20049;-69
2023/10/22 09:31:50;;;;;;;27.77;18.35;;;;;;;26.58;nan;99061.19;5023929;28;20052;-68
2023/10/22 09:34:32;;;;;;;19.23;17.00;;;;;;;26.84;nan;99062.53;5022380;28;20053;-67
2023/10/22 09:37:01;;;;;;;21.67;16.42;;;;;;;26.90;nan;99055.16;5026515;28;20049;-67
2023/10/22 09:39:35;;;;;;;24.70;17.60;;;;;;;26.85;nan;99056.03;5020453;28;20581;-67
2023/10/22 09:42:08;;;;;;;24.52;17.50;;;;;;;26.80;nan;99061.50;5020200;28;20065;-69
2023/10/22 09:44:44;;;;;;;23.02;16.65;;;;;;;26.74;nan;99051.78;5026360;28;20052;-68
2023/10/22 09:47:20;;;;;;;24.63;18.08;;;;;;;26.67;nan;99056.75;5013108;28;20392;-68
2023/10/22 09:50:04;;;;;;;22.27;17.15;;;;;;;26.59;nan;99055.50;4671703;28;10000041;-69
2023/10/22 09:52:38;;;;;;;22.88;17.40;;;;;;;26.53;nan;99053.91;5014253;28;20504;-68
2023/10/22 09:55:13;;;;;;;26.85;18.70;;;;;;;26.52;nan;99051.47;5022097;28;20053;-68
2023/10/22 09:57:46;;;;;;;34.40;17.08;;;;;;;26.57;nan;99052.25;5010136;28;20044;-70
2023/10/22 10:00:20;;;;;;;29.70;21.17;;;;;;;26.68;nan;99050.22;5019819;28;20069;-70
2023/10/22 10:02:53;;;;;;;41.60;29.00;;;;;;;26.63;nan;99051.09;5015473;28;20060;-69
2023/10/22 10:05:23;;;;;;;42.35;29.08;;;;;;;26.64;nan;99051.91;5001192;28;20049;-68
2023/10/22 10:07:53;;;;;;;40.97;29.40;;;;;;;26.73;nan;99048.25;5019705;28;20139;-67
2023/10/22 10:10:24;;;;;;;44.25;31.08;;;;;;;26.73;nan;99045.53;5021006;28;20049;-68
2023/10/22 10:12:53;;;;;;;45.63;33.45;;;;;;;26.73;nan;99045.53;5021056;28;20045;-68
2023/10/22 10:15:34;;;;;;;47.20;33.22;;;;;;;26.67;nan;99040.44;5013504;28;20441;-70
2023/10/22 10:18:07;;;;;;;46.25;31.75;;;;;;;26.59;nan;99047.34;5021522;28;20100;-68
2023/10/22 10:20:39;;;;;;;50.28;32.13;;;;;;;26.74;nan;99049.06;5020660;28;20045;-70
2023/10/22 10:23:20;;;;;;;44.88;32.40;;;;;;;26.74;nan;99046.34;5022774;28;20478;-69
2023/10/22 10:25:50;;;;;;;49.88;33.35;;;;;;;26.70;nan;99042.59;5023569;28;20046;-70
2023/10/22 10:28:40;;;;;;;44.45;33.58;;;;;;;26.58;nan;99034.03;5022903;28;20041;-69
2023/10/22 10:31:29;;;;;;;49.72;32.20;;;;;;;26.49;nan;99036.56;5020312;28;20409;-70
2023/10/22 10:34:02;;;;;;;45.20;33.42;;;;;;;26.57;nan;99027.78;5024426;28;20479;-71
2023/10/22 10:36:33;;;;;;;54.22;33.08;;;;;;;26.57;nan;99026.97;5024126;28;20041;-69
2023/10/22 10:39:40;;;;;;;42.97;31.23;;;;;;;26.56;nan;99023.44;5030884;28;20048;-70
2023/10/22 10:42:11;;;;;;;45.35;32.92;;;;;;;26.49;nan;99025.72;5004614;28;20065;-67
2023/10/22 10:45:00;;;;;;;50.80;33.92;;;;;;;26.45;nan;99024.66;5027909;28;20073;-68
2023/10/22 10:47:33;;;;;;;52.15;34.88;;;;;;;26.41;nan;99022.81;5042277;28;20049;-68
2023/10/22 10:50:18;;;;;;;48.58;32.70;;;;;;;26.29;nan;99015.84;5025920;28;20056;-69
2023/10/22 10:52:47;;;;;;;46.33;32.72;;;;;;;26.28;nan;99018.88;5024432;28;20480;-68
2023/10/22 10:55:23;;;;;;;45.22;33.10;;;;;;;26.21;nan;99019.19;5024396;28;20144;-69
2023/10/22 10:57:55;;;;;;;53.58;34.25;;;;;;;26.14;nan;99013.28;5020236;28;20056;-69
2023/10/22 11:00:32;;;;;;;47.92;32.85;;;;;;;26.11;nan;99016.53;5003789;28;20041;-70
2023/10/22 11:03:04;;;;;;;46.90;34.65;;;;;;;26.07;nan;99009.28;5034335;28;20114;-68
2023/10/22 11:05:47;;;;;;;46.97;33.53;;;;;;;26.03;nan;99019.06;5033327;28;20060;-67
2023/10/22 11:08:22;;;;;;;44.15;35.20;;;;;;;25.97;nan;99020.22;5027921;28;20048;-66
2023/10/22 11:10:51;;;;;;;51.60;35.22;;;;;;;25.91;nan;99017.53;5030362;28;20052;-66
2023/10/22 11:13:27;;;;;;;51.33;35.22;;;;;;;25.86;nan;99012.16;5023555;28;20052;-66
2023/10/22 11:16:06;;;;;;;50.42;35.70;;;;;;;25.79;nan;99016.31;5022913;28;20049;-64
2023/10/22 11:18:56;;;;;;;46.38;35.60;;;;;;;25.74;nan;99011.72;5020271;28;20069;-68
2023/10/22 11:21:28;;;;;;;52.97;36.53;;;;;;;25.71;nan;99014.97;5021224;28;20431;-68
2023/10/22 11:23:58;;;;;;;51.20;36.17;;;;;;;25.63;nan;99004.75;5022025;28;20568;-68
2023/10/22 11:26:28;;;;;;;50.28;35.67;;;;;;;25.62;nan;99011.28;5021042;28;20069;-67
2023/10/22 11:28:57;;;;;;;54.80;36.92;;;;;;;25.54;nan;99009.16;5026335;28;20142;-68
2023/10/22 11:31:29;;;;;;;56.90;37.47;;;;;;;25.55;nan;99004.53;5018855;28;20065;-67
2023/10/22 11:34:15;;;;;;;53.20;35.60;;;;;;;25.49;nan;99007.25;5027843;28;20184;-67
2023/10/22 11:36:45;;;;;;;47.17;35.80;;;;;;;25.32;nan;99001.41;5025761;28;20053;-68
2023/10/22 11:39:18;;;;;;;48.53;37.20;;;;;;;25.28;nan;99015.81;5027920;28;20059;-66
2023/10/22 11:42:03;;;;;;;53.53;36.97;;;;;;;25.34;nan;99011.97;5022022;28;20060;-70
2023/10/22 11:44:35;;;;;;;57.75;39.00;;;;;;;25.27;nan;99009.56;5030144;28;20052;-69
2023/10/22 11:47:34;;;;;;;52.35;39.47;;;;;;;25.23;nan;99005.78;5027125;28;20536;-71
2023/10/22 11:50:04;;;;;;;55.08;38.17;;;;;;;25.17;nan;99006.94;5026771;28;20045;-70